Terminal Aerodrome Forecast
Issued by NWS Sioux Falls, SD

Home | Current Version | Previous Version | Text Only | Print | Product List | Glossary On
Versions: 1 2 3 4 5 6 7 8 9 10 11 12 13 14 15 16 17 18 19 20 21 22
000
FTUS43 KFSD 292320
TAFFSD
TAF
KFSD 292320Z 3000/3024 08010KT P6SM SCT100
     FM300500 09012KT P6SM BKN015
     FM301000 10012G16KT P6SM OVC010
     FM301600 12014G20KT 5SM SHRA OVC015
     FM301900 15015G25KT P6SM BKN035=

USA.gov is the U.S. government's official web portal to all federal, state and local government web resources and services.